Time;durP1;ratioP1;P1;durP2;ratioP2;P2;SDS_P1;SDS_P2;PMS_P1;PMS_P2;Temp;Humidity;BMP_temperature;BMP_pressure;BME280_temperature;BME280_humidity;BME280_pressure;Samples;Min_cycle;Max_cycle;Signal;HPM_P1;HPM_P2
2022/04/09 00:00:30;;;;;;;16.67;3.23;;;4.70;99.90;;;;;;4994945;28;20249;-88
2022/04/09 00:02:58;;;;;;;13.97;3.70;;;4.70;99.90;;;;;;4996877;28;20721;-88
2022/04/09 00:05:26;;;;;;;13.30;2.70;;;5.10;99.90;;;;;;5011028;28;20297;-87
2022/04/09 00:07:57;;;;;;;9.30;2.27;;;5.00;99.90;;;;;;5020385;28;20246;-85
2022/04/09 00:10:24;;;;;;;11.37;2.50;;;4.80;99.90;;;;;;5006561;28;20809;-88
2022/04/09 00:12:52;;;;;;;8.67;2.27;;;4.80;99.90;;;;;;5003419;28;20354;-87
2022/04/09 00:15:20;;;;;;;15.97;2.50;;;4.80;99.90;;;;;;4986996;28;20218;-86
2022/04/09 00:17:48;;;;;;;11.33;2.37;;;4.80;99.90;;;;;;5010514;28;20238;-87
2022/04/09 00:20:17;;;;;;;12.63;2.70;;;4.70;99.90;;;;;;5008396;28;20199;-86
2022/04/09 00:22:45;;;;;;;15.87;2.27;;;4.80;99.90;;;;;;5010626;28;20614;-87
2022/04/09 00:25:13;;;;;;;9.13;2.30;;;4.70;99.90;;;;;;5013277;28;20776;-88
2022/04/09 00:27:40;;;;;;;10.07;2.17;;;4.80;99.90;;;;;;5003231;28;20302;-86
2022/04/09 00:30:09;;;;;;;13.67;2.60;;;4.80;99.90;;;;;;5010889;28;20551;-88
2022/04/09 00:32:36;;;;;;;7.07;2.10;;;4.80;99.90;;;;;;5008754;28;20233;-86
2022/04/09 00:35:05;;;;;;;7.37;2.07;;;4.80;99.90;;;;;;5010198;28;20229;-86
2022/04/09 00:37:41;;;;;;;8.43;1.97;;;4.90;99.90;;;;;;5002015;28;20219;-86
2022/04/09 00:40:08;;;;;;;4.30;1.60;;;4.90;99.90;;;;;;5007360;28;20221;-87
2022/04/09 00:42:37;;;;;;;7.93;2.40;;;4.90;99.90;;;;;;5015746;28;20395;-85
2022/04/09 00:45:05;;;;;;;7.30;1.70;;;4.80;99.90;;;;;;5012417;28;20664;-87
2022/04/09 00:47:35;;;;;;;3.07;1.53;;;4.90;99.90;;;;;;5006339;28;20686;-85
2022/04/09 00:50:05;;;;;;;5.10;1.50;;;4.80;99.90;;;;;;5010400;28;20202;-86
2022/04/09 00:52:34;;;;;;;7.17;1.90;;;4.80;99.90;;;;;;5013872;28;20214;-88
2022/04/09 00:55:04;;;;;;;5.97;1.70;;;4.70;99.90;;;;;;5014572;28;20257;-87
2022/04/09 00:57:35;;;;;;;4.47;1.97;;;4.70;99.90;;;;;;5016634;28;20202;-88
2022/04/09 01:00:11;;;;;;;10.33;2.50;;;4.70;99.90;;;;;;5010386;28;20797;-86
2022/04/09 01:02:40;;;;;;;10.63;2.30;;;4.60;99.90;;;;;;5011574;28;20210;-87
2022/04/09 01:05:12;;;;;;;9.57;2.60;;;4.60;99.90;;;;;;5003278;28;20235;-86
2022/04/09 01:07:43;;;;;;;11.53;2.03;;;4.70;99.90;;;;;;5008993;28;21422;-87
2022/04/09 01:10:11;;;;;;;10.73;2.43;;;4.60;99.90;;;;;;5012406;28;20277;-86
2022/04/09 01:12:39;;;;;;;10.17;2.07;;;4.50;99.90;;;;;;4994683;28;20242;-86
2022/04/09 01:15:08;;;;;;;7.73;2.57;;;4.60;99.90;;;;;;5011109;28;20207;-85
2022/04/09 01:17:36;;;;;;;5.97;2.10;;;4.50;99.90;;;;;;5009194;28;20249;-88
2022/04/09 01:20:21;;;;;;;11.17;2.57;;;4.50;99.90;;;;;;5009527;28;20237;-87
2022/04/09 01:22:50;;;;;;;9.57;2.53;;;4.50;99.90;;;;;;5007720;28;20221;-86
2022/04/09 01:25:19;;;;;;;16.97;2.83;;;4.50;99.90;;;;;;5010539;28;20800;-85
2022/04/09 01:27:47;;;;;;;10.53;2.70;;;4.40;99.90;;;;;;5010914;28;20198;-86
2022/04/09 01:30:15;;;;;;;7.20;2.50;;;4.80;99.90;;;;;;4995946;28;20220;-86
2022/04/09 01:32:44;;;;;;;5.97;2.17;;;4.40;99.90;;;;;;5004120;28;20786;-86
2022/04/09 01:35:12;;;;;;;12.07;2.50;;;4.40;99.90;;;;;;5011132;28;20225;-87
2022/04/09 01:37:39;;;;;;;11.67;3.17;;;4.40;99.90;;;;;;5014160;28;20218;-85
2022/04/09 01:40:06;;;;;;;10.17;2.53;;;4.40;99.90;;;;;;5012775;28;20206;-86
2022/04/09 01:42:36;;;;;;;8.40;2.63;;;4.40;99.90;;;;;;5007247;28;20216;-88
2022/04/09 01:45:06;;;;;;;11.27;4.37;;;4.40;99.90;;;;;;5015941;28;20208;-85
2022/04/09 01:47:41;;;;;;;18.67;3.10;;;4.40;99.90;;;;;;5007877;28;20208;-87
2022/04/09 01:50:12;;;;;;;6.50;1.77;;;4.40;99.90;;;;;;5008823;28;20302;-85
2022/04/09 01:52:39;;;;;;;6.50;2.23;;;4.40;99.90;;;;;;5014308;28;20228;-87
2022/04/09 01:55:07;;;;;;;6.80;2.20;;;4.30;99.90;;;;;;5011711;28;20201;-88
2022/04/09 01:57:35;;;;;;;15.13;2.70;;;4.30;99.90;;;;;;5006601;28;20199;-86
2022/04/09 02:00:06;;;;;;;8.90;2.57;;;4.30;99.90;;;;;;5004090;28;20558;-86
2022/04/09 02:02:33;;;;;;;12.50;2.27;;;4.30;99.90;;;;;;5003110;28;20203;-88
2022/04/09 02:05:02;;;;;;;16.37;2.63;;;4.30;99.90;;;;;;5005327;28;20203;-86
2022/04/09 02:07:30;;;;;;;10.53;3.07;;;4.30;99.90;;;;;;5008792;28;20216;-87
2022/04/09 02:09:57;;;;;;;10.30;2.30;;;4.30;99.90;;;;;;5007011;28;20279;-87
2022/04/09 02:12:24;;;;;;;9.43;2.40;;;4.30;99.90;;;;;;5004051;28;20591;-85
2022/04/09 02:14:50;;;;;;;9.57;2.70;;;4.30;99.90;;;;;;5010780;28;20334;-87
2022/04/09 02:17:17;;;;;;;7.33;2.00;;;4.30;99.90;;;;;;5006724;28;20227;-88
2022/04/09 02:19:44;;;;;;;9.40;2.40;;;4.30;99.90;;;;;;5009945;28;20260;-86
2022/04/09 02:22:13;;;;;;;13.13;2.77;;;4.30;99.90;;;;;;5009141;28;20219;-88
2022/04/09 02:24:41;;;;;;;16.40;2.40;;;4.30;99.90;;;;;;5006325;28;20410;-86
2022/04/09 02:27:08;;;;;;;7.53;2.33;;;4.50;99.90;;;;;;5019336;28;20221;-87
2022/04/09 02:29:35;;;;;;;10.60;2.70;;;4.30;99.90;;;;;;5003173;28;20227;-86
2022/04/09 02:32:05;;;;;;;11.83;2.40;;;4.30;99.90;;;;;;5009867;28;20251;-86
2022/04/09 02:34:32;;;;;;;10.20;2.47;;;4.40;99.90;;;;;;4999705;28;20316;-86
2022/04/09 02:37:01;;;;;;;11.93;2.50;;;4.40;99.90;;;;;;5001854;28;20238;-86
2022/04/09 02:39:28;;;;;;;15.30;2.77;;;4.70;99.90;;;;;;5022828;28;20626;-86
2022/04/09 02:41:55;;;;;;;8.90;2.37;;;4.50;99.90;;;;;;5011742;28;20214;-86
2022/04/09 02:44:24;;;;;;;13.73;2.37;;;4.50;99.90;;;;;;5012220;28;20210;-85
2022/04/09 02:46:51;;;;;;;11.43;2.00;;;4.40;99.90;;;;;;5010447;28;20204;-86
2022/04/09 02:49:20;;;;;;;8.53;2.10;;;4.40;99.90;;;;;;5020624;28;20208;-87
2022/04/09 02:51:47;;;;;;;11.13;2.60;;;4.40;99.90;;;;;;5011102;28;20230;-87
2022/04/09 02:54:17;;;;;;;10.40;2.10;;;4.40;99.90;;;;;;5019043;28;20706;-86
2022/04/09 02:56:46;;;;;;;8.67;2.70;;;4.40;99.90;;;;;;5018126;28;20658;-85
2022/04/09 02:59:14;;;;;;;14.20;3.17;;;4.40;99.90;;;;;;5010362;28;20202;-87
2022/04/09 03:01:46;;;;;;;11.70;2.30;;;4.40;99.90;;;;;;5017683;28;20225;-88
2022/04/09 03:04:15;;;;;;;9.00;2.07;;;4.30;99.90;;;;;;5007022;28;20206;-86
2022/04/09 03:06:42;;;;;;;6.27;1.93;;;4.30;99.90;;;;;;5011050;28;20637;-86
2022/04/09 03:09:13;;;;;;;10.37;2.13;;;4.20;99.90;;;;;;5014141;28;20656;-87
2022/04/09 03:11:44;;;;;;;3.33;1.73;;;4.10;99.90;;;;;;5014659;28;20225;-87
2022/04/09 03:14:14;;;;;;;10.93;2.10;;;4.30;99.90;;;;;;5005999;28;20314;-88
2022/04/09 03:16:40;;;;;;;12.40;2.10;;;4.20;99.90;;;;;;5002334;28;20258;-84
2022/04/09 03:19:08;;;;;;;13.73;2.30;;;4.20;99.90;;;;;;5006805;28;20222;-85
2022/04/09 03:21:35;;;;;;;13.23;2.60;;;4.10;99.90;;;;;;5012515;28;20268;-87
2022/04/09 03:24:03;;;;;;;7.20;2.10;;;4.20;99.90;;;;;;5009364;28;20278;-86
2022/04/09 03:26:30;;;;;;;17.30;2.50;;;4.20;99.90;;;;;;5013738;28;20197;-87
2022/04/09 03:28:57;;;;;;;12.83;2.73;;;4.10;99.90;;;;;;5013001;28;20213;-87
2022/04/09 03:31:24;;;;;;;10.47;2.97;;;4.20;99.90;;;;;;5004390;28;20289;-86
2022/04/09 03:33:52;;;;;;;11.80;3.30;;;4.10;99.90;;;;;;4998072;28;20237;-86
2022/04/09 03:36:19;;;;;;;11.90;3.30;;;4.20;99.90;;;;;;5012513;28;20845;-85
2022/04/09 03:38:49;;;;;;;11.50;2.20;;;4.20;99.90;;;;;;5009348;28;20215;-87
2022/04/09 03:41:16;;;;;;;10.20;2.43;;;4.20;99.90;;;;;;5012136;28;20206;-86
2022/04/09 03:43:48;;;;;;;10.53;2.37;;;4.20;99.90;;;;;;5013358;28;20239;-86
2022/04/09 03:46:16;;;;;;;6.80;1.77;;;4.40;99.90;;;;;;5014536;28;20202;-86
2022/04/09 03:48:43;;;;;;;8.17;2.30;;;4.40;99.90;;;;;;5014980;28;20209;-87
2022/04/09 03:51:14;;;;;;;10.80;2.00;;;4.50;99.90;;;;;;5014075;28;20248;-87
2022/04/09 03:53:42;;;;;;;7.33;1.77;;;4.30;99.90;;;;;;5009054;28;20234;-88
2022/04/09 03:56:10;;;;;;;8.90;2.10;;;4.40;99.90;;;;;;5012712;28;20246;-87
2022/04/09 03:58:37;;;;;;;9.83;2.63;;;4.40;99.90;;;;;;5013854;28;20295;-86
2022/04/09 04:01:04;;;;;;;7.67;2.00;;;4.50;99.90;;;;;;5019622;28;20256;-86
2022/04/09 04:03:34;;;;;;;6.57;2.00;;;4.60;99.90;;;;;;5011065;28;20879;-87
2022/04/09 04:06:02;;;;;;;11.37;2.50;;;4.50;99.90;;;;;;5007983;28;20790;-85
2022/04/09 04:08:31;;;;;;;6.27;1.97;;;4.50;99.90;;;;;;5008053;28;20611;-87
2022/04/09 04:11:02;;;;;;;8.23;2.10;;;4.50;99.90;;;;;;5029562;28;20662;-87
2022/04/09 04:13:30;;;;;;;7.63;2.10;;;4.50;99.90;;;;;;5017811;28;20204;-87
2022/04/09 04:15:57;;;;;;;5.27;1.70;;;4.60;99.90;;;;;;5012714;28;20657;-87
2022/04/09 04:18:24;;;;;;;11.87;1.90;;;4.60;99.90;;;;;;5007413;28;20242;-87
2022/04/09 04:20:52;;;;;;;8.43;2.40;;;4.60;99.90;;;;;;5023026;28;20217;-87
2022/04/09 04:23:20;;;;;;;9.40;1.83;;;4.60;99.90;;;;;;5016344;28;20243;-86
2022/04/09 04:25:47;;;;;;;11.73;2.97;;;5.00;99.90;;;;;;5014755;28;20229;-86
2022/04/09 04:28:14;;;;;;;9.47;2.13;;;4.60;99.90;;;;;;5013268;28;20228;-87
2022/04/09 04:30:42;;;;;;;8.97;2.90;;;4.60;99.90;;;;;;5010667;28;20254;-85
2022/04/09 04:33:09;;;;;;;7.47;2.77;;;4.60;99.90;;;;;;5000432;28;21035;-85
2022/04/09 04:35:37;;;;;;;7.93;2.70;;;4.50;99.90;;;;;;5011039;28;20229;-87
2022/04/09 04:38:04;;;;;;;8.27;2.20;;;4.40;99.90;;;;;;5011316;28;20583;-89
2022/04/09 04:40:34;;;;;;;9.13;2.43;;;4.40;99.90;;;;;;5009169;28;20258;-86
2022/04/09 04:43:01;;;;;;;11.97;2.10;;;4.40;99.90;;;;;;5006949;28;20215;-86
2022/04/09 04:45:32;;;;;;;8.07;2.20;;;4.40;99.90;;;;;;5007703;28;20638;-86
2022/04/09 04:47:59;;;;;;;6.37;2.00;;;4.30;99.90;;;;;;4997448;28;20560;-85
2022/04/09 04:50:26;;;;;;;8.87;2.13;;;4.30;99.90;;;;;;5004639;28;20275;-86
2022/04/09 04:52:53;;;;;;;10.50;2.23;;;4.30;99.90;;;;;;5004699;28;20315;-86
2022/04/09 04:55:22;;;;;;;5.00;1.83;;;4.20;99.90;;;;;;5007527;28;20227;-87
2022/04/09 04:57:55;;;;;;;8.80;2.20;;;4.30;99.90;;;;;;5003625;28;20242;-87
2022/04/09 05:00:25;;;;;;;12.60;2.17;;;4.30;99.90;;;;;;5008014;28;20211;-87
2022/04/09 05:02:52;;;;;;;16.43;2.67;;;4.30;99.90;;;;;;5008710;28;20209;-87
2022/04/09 05:05:20;;;;;;;9.70;2.20;;;4.20;99.90;;;;;;5000738;28;20210;-87
2022/04/09 05:07:49;;;;;;;6.53;1.67;;;4.20;99.90;;;;;;5005403;28;20225;-84
2022/04/09 05:10:18;;;;;;;20.27;3.30;;;4.20;99.90;;;;;;5012223;28;20224;-86
2022/04/09 05:12:45;;;;;;;13.60;2.23;;;4.20;99.90;;;;;;5010901;28;20613;-87
2022/04/09 05:15:14;;;;;;;10.20;2.43;;;4.30;99.90;;;;;;5003220;28;20244;-84
2022/04/09 05:17:41;;;;;;;8.80;2.73;;;4.30;99.90;;;;;;5003119;28;20339;-86
2022/04/09 05:20:14;;;;;;;8.40;2.40;;;3.80;99.90;;;;;;5000449;28;20279;-86
2022/04/09 05:22:46;;;;;;;13.97;2.40;;;4.50;99.90;;;;;;5003748;28;20300;-86
2022/04/09 05:25:19;;;;;;;9.20;2.90;;;4.40;99.90;;;;;;5004159;28;20667;-86
2022/04/09 05:27:49;;;;;;;13.37;3.10;;;4.40;99.90;;;;;;5005766;28;20226;-85
2022/04/09 05:30:16;;;;;;;16.27;3.87;;;4.40;99.90;;;;;;5002124;28;20588;-85
2022/04/09 05:32:43;;;;;;;18.23;3.63;;;4.40;99.90;;;;;;5004494;28;20309;-87
2022/04/09 05:35:11;;;;;;;10.27;2.93;;;4.50;99.90;;;;;;5005336;28;20223;-85
2022/04/09 05:37:42;;;;;;;19.37;3.03;;;4.50;99.90;;;;;;5000389;28;20274;-85
2022/04/09 05:40:10;;;;;;;10.70;2.67;;;4.60;99.90;;;;;;5010298;28;20214;-85
2022/04/09 05:42:36;;;;;;;16.30;2.20;;;4.60;99.90;;;;;;5000961;28;20293;-86
2022/04/09 05:45:04;;;;;;;12.60;2.17;;;4.60;99.90;;;;;;5004801;28;20210;-87
2022/04/09 05:47:30;;;;;;;12.37;2.53;;;4.60;99.90;;;;;;5002206;28;20242;-86
2022/04/09 05:49:58;;;;;;;10.43;2.30;;;4.60;99.90;;;;;;4987532;28;20315;-86
2022/04/09 05:52:25;;;;;;;11.83;2.37;;;4.60;99.90;;;;;;5011878;28;20257;-86
2022/04/09 05:54:52;;;;;;;10.03;2.27;;;3.90;99.90;;;;;;5011718;28;20230;-86
2022/04/09 05:57:19;;;;;;;15.50;2.20;;;4.50;99.90;;;;;;5008858;28;20213;-85
2022/04/09 05:59:46;;;;;;;9.57;2.80;;;4.50;99.90;;;;;;5004638;28;20695;-87
2022/04/09 06:02:13;;;;;;;12.90;2.40;;;4.60;99.90;;;;;;5007357;28;20357;-87
2022/04/09 06:04:40;;;;;;;11.07;2.53;;;4.60;99.90;;;;;;5003514;28;20261;-88
2022/04/09 06:07:07;;;;;;;11.33;2.37;;;4.60;99.90;;;;;;4999725;28;20314;-89
2022/04/09 06:09:33;;;;;;;13.97;3.00;;;4.70;99.90;;;;;;5005263;28;20292;-86
2022/04/09 06:12:01;;;;;;;11.53;2.47;;;4.30;99.90;;;;;;5007369;28;20277;-87
2022/04/09 06:14:29;;;;;;;9.77;2.50;;;4.70;99.90;;;;;;5004260;28;20248;-87
2022/04/09 06:16:56;;;;;;;8.00;2.30;;;4.80;99.90;;;;;;5003797;28;20308;-87
2022/04/09 06:19:23;;;;;;;8.27;2.60;;;4.80;99.90;;;;;;4993699;28;20214;-87
2022/04/09 06:21:50;;;;;;;8.10;2.50;;;4.90;99.90;;;;;;5000341;28;20311;-87
2022/04/09 06:24:17;;;;;;;8.80;2.00;;;5.00;99.90;;;;;;5010957;28;20703;-86
2022/04/09 06:26:44;;;;;;;15.77;2.30;;;5.10;99.90;;;;;;5013437;28;20625;-86
2022/04/09 06:29:11;;;;;;;11.10;2.40;;;5.20;99.90;;;;;;5013182;28;20208;-87
2022/04/09 06:31:38;;;;;;;18.63;3.57;;;5.40;99.90;;;;;;5013042;28;20202;-87
2022/04/09 06:34:05;;;;;;;9.13;2.10;;;5.50;99.90;;;;;;5011164;28;20205;-87
2022/04/09 06:36:32;;;;;;;9.00;1.90;;;5.50;99.90;;;;;;5006224;28;20249;-87
2022/04/09 06:39:00;;;;;;;8.70;2.17;;;;;;;;;;5016964;28;20227;-87
2022/04/09 06:41:28;;;;;;;7.27;1.60;;;6.90;99.90;;;;;;5017221;28;20285;-86
2022/04/09 06:43:55;;;;;;;7.83;1.87;;;7.50;99.90;;;;;;5012586;28;20297;-87
2022/04/09 06:46:22;;;;;;;8.50;1.83;;;8.90;99.90;;;;;;5022920;28;20207;-86
2022/04/09 06:48:51;;;;;;;8.90;1.77;;;9.40;99.90;;;;;;5014973;28;20218;-88
2022/04/09 06:51:19;;;;;;;8.20;1.63;;;10.10;99.90;;;;;;5024387;28;20217;-87
2022/04/09 06:53:49;;;;;;;8.53;1.60;;;10.30;99.90;;;;;;5025263;28;20207;-87
2022/04/09 06:56:19;;;;;;;5.07;1.60;;;11.60;99.90;;;;;;5027131;28;20209;-88
2022/04/09 06:58:48;;;;;;;6.67;1.70;;;;;;;;;;5036772;28;20211;-88
2022/04/09 07:01:18;;;;;;;5.17;1.70;;;11.90;99.90;;;;;;5042243;28;20191;-84
2022/04/09 07:03:46;;;;;;;7.30;1.33;;;11.30;99.90;;;;;;5020117;28;20198;-86
2022/04/09 07:06:15;;;;;;;2.67;1.30;;;10.40;99.90;;;;;;5017189;28;20214;-86
2022/04/09 07:08:43;;;;;;;5.97;1.90;;;9.60;99.90;;;;;;5017916;28;20282;-86
2022/04/09 07:11:10;;;;;;;5.60;1.37;;;9.40;99.90;;;;;;5007861;28;20245;-85
2022/04/09 07:13:37;;;;;;;8.60;1.70;;;8.40;99.90;;;;;;5015420;28;20305;-87
2022/04/09 07:16:05;;;;;;;5.17;1.60;;;8.40;99.90;;;;;;5019268;28;20350;-86
2022/04/09 07:18:35;;;;;;;9.90;1.77;;;8.60;99.90;;;;;;5020717;28;20272;-86
2022/04/09 07:21:12;;;;;;;8.50;1.53;;;7.80;99.90;;;;;;5024341;28;20210;-88
2022/04/09 07:23:39;;;;;;;7.57;1.90;;;8.20;99.90;;;;;;5026251;28;20195;-86
2022/04/09 07:26:07;;;;;;;10.50;1.97;;;8.00;99.90;;;;;;5008511;28;20559;-88
2022/04/09 07:28:34;;;;;;;8.27;1.60;;;9.40;99.90;;;;;;5026585;28;20789;-87
2022/04/09 07:31:10;;;;;;;6.47;1.50;;;10.80;99.90;;;;;;5015601;28;20206;-88
2022/04/09 07:33:37;;;;;;;4.23;2.10;;;10.60;99.90;;;;;;5022822;28;20291;-87
2022/04/09 07:36:08;;;;;;;6.07;1.53;;;12.10;99.90;;;;;;5027226;28;20257;-86
2022/04/09 07:38:39;;;;;;;8.83;1.60;;;11.40;99.90;;;;;;5016443;28;20199;-84
2022/04/09 07:41:07;;;;;;;9.73;2.07;;;10.70;99.90;;;;;;5026777;28;20207;-88
2022/04/09 07:43:42;;;;;;;8.63;2.30;;;10.00;99.90;;;;;;5024415;28;20220;-90
2022/04/09 07:46:10;;;;;;;8.17;1.77;;;9.70;99.90;;;;;;5017209;28;20217;-85
2022/04/09 07:48:42;;;;;;;7.37;1.60;;;9.50;99.90;;;;;;5026366;28;20270;-89
2022/04/09 07:51:09;;;;;;;9.43;1.53;;;9.60;99.90;;;;;;5019981;28;20211;-89
2022/04/09 07:53:49;;;;;;;7.27;1.97;;;10.00;99.90;;;;;;5021313;28;20201;-89
2022/04/09 07:56:21;;;;;;;9.50;1.40;;;10.20;99.90;;;;;;5031573;28;20226;-89
2022/04/09 07:59:02;;;;;;;5.73;1.30;;;9.90;99.90;;;;;;5033861;28;20290;-89
2022/04/09 08:01:36;;;;;;;8.33;2.43;;;11.10;99.90;;;;;;5026961;28;20220;-90
2022/04/09 08:04:08;;;;;;;1.57;1.00;;;11.70;99.90;;;;;;5020461;28;20226;-90
2022/04/09 08:06:53;;;;;;;5.53;1.27;;;11.20;99.90;;;;;;5023096;28;20242;-89
2022/04/09 08:09:25;;;;;;;7.37;1.60;;;11.00;99.90;;;;;;5036160;28;20227;-88
2022/04/09 08:11:53;;;;;;;11.27;1.80;;;10.30;99.90;;;;;;5025873;28;20207;-90
2022/04/09 08:14:39;;;;;;;3.33;1.50;;;9.80;99.90;;;;;;5028153;28;20206;-88
2022/04/09 08:17:07;;;;;;;7.60;2.00;;;9.40;99.90;;;;;;5000463;28;20238;-86
2022/04/09 08:19:36;;;;;;;9.43;2.93;;;9.50;99.90;;;;;;5014382;28;20207;-89
2022/04/09 08:22:21;;;;;;;7.27;1.23;;;8.90;99.90;;;;;;5025310;28;20214;-87
2022/04/09 08:24:56;;;;;;;7.33;1.50;;;9.00;99.90;;;;;;5025230;28;20627;-88
2022/04/09 08:27:30;;;;;;;6.27;2.50;;;8.80;99.90;;;;;;5031309;28;20209;-87
2022/04/09 08:30:03;;;;;;;4.77;1.33;;;8.80;99.90;;;;;;5028550;28;20380;-88
2022/04/09 08:32:30;;;;;;;14.13;2.40;;;8.40;99.90;;;;;;5025566;28;20192;-89
2022/04/09 08:35:00;;;;;;;1.87;1.00;;;8.80;99.90;;;;;;5028520;28;20234;-89
2022/04/09 08:37:35;;;;;;;5.97;1.87;;;;;;;;;;5016572;28;20219;-90
2022/04/09 08:40:03;;;;;;;9.43;1.50;;;9.00;99.90;;;;;;5016826;28;20249;-88
2022/04/09 08:42:31;;;;;;;6.23;1.57;;;8.90;99.90;;;;;;5019219;28;20219;-87
2022/04/09 08:45:01;;;;;;;8.00;1.60;;;8.60;99.90;;;;;;5019469;28;20194;-88
2022/04/09 08:47:28;;;;;;;6.33;1.30;;;8.40;99.90;;;;;;5009119;28;20257;-88
2022/04/09 08:49:57;;;;;;;4.80;0.90;;;8.40;99.90;;;;;;5015217;28;20214;-85
2022/04/09 08:52:31;;;;;;;6.23;1.40;;;8.40;99.90;;;;;;5017816;28;20246;-89
2022/04/09 08:54:59;;;;;;;4.80;1.17;;;8.90;99.90;;;;;;5008054;28;20374;-87
2022/04/09 08:57:27;;;;;;;5.33;1.07;;;9.40;99.90;;;;;;4997329;28;20210;-87
2022/04/09 08:59:55;;;;;;;6.57;1.20;;;9.90;99.90;;;;;;5013570;28;20210;-86
2022/04/09 09:02:23;;;;;;;7.37;1.80;;;10.50;99.90;;;;;;5017089;28;20459;-90
2022/04/09 09:04:51;;;;;;;5.07;1.43;;;9.80;99.90;;;;;;5015684;28;20206;-85
2022/04/09 09:07:20;;;;;;;11.07;2.30;;;11.40;99.90;;;;;;5015563;28;20231;-90
2022/04/09 09:09:51;;;;;;;6.10;1.50;;;11.70;99.90;;;;;;5012394;28;20661;-88
2022/04/09 09:12:35;;;;;;;8.13;1.63;;;12.20;99.90;;;;;;5011518;28;20215;-86
2022/04/09 09:15:06;;;;;;;2.97;0.97;;;12.70;99.90;;;;;;5007726;28;20781;-86
2022/04/09 09:17:33;;;;;;;7.13;1.67;;;12.80;99.90;;;;;;5016509;28;20243;-88
2022/04/09 09:20:00;;;;;;;9.67;2.03;;;12.40;99.90;;;;;;5013213;28;20253;-84
2022/04/09 09:22:38;;;;;;;4.23;1.00;;;12.30;99.90;;;;;;5015025;28;20223;-84
2022/04/09 09:25:10;;;;;;;3.07;1.10;;;11.30;99.90;;;;;;5007312;28;20206;-86
2022/04/09 09:27:38;;;;;;;21.67;4.30;;;9.20;99.90;;;;;;5002417;28;20835;-86
2022/04/09 09:30:06;;;;;;;9.57;1.47;;;9.50;99.90;;;;;;5002630;28;20665;-87
2022/04/09 09:32:34;;;;;;;6.73;1.77;;;8.00;99.90;;;;;;4991521;28;20210;-87
2022/04/09 09:35:05;;;;;;;5.03;1.60;;;7.40;99.90;;;;;;5008611;28;20225;-86
2022/04/09 09:37:32;;;;;;;8.43;1.73;;;7.20;99.90;;;;;;5004860;28;20286;-85
2022/04/09 09:39:59;;;;;;;7.60;1.67;;;7.90;99.90;;;;;;5007328;28;20240;-85
2022/04/09 09:42:26;;;;;;;5.00;1.30;;;7.70;99.90;;;;;;5002550;28;20210;-86
2022/04/09 09:44:53;;;;;;;2.93;1.13;;;6.50;99.90;;;;;;5008367;28;20574;-87
2022/04/09 09:47:20;;;;;;;19.33;3.40;;;6.10;99.90;;;;;;5008501;28;20389;-87
2022/04/09 09:49:58;;;;;;;2.37;0.80;;;6.10;99.90;;;;;;4997614;28;20293;-88
2022/04/09 09:52:28;;;;;;;3.83;1.43;;;6.20;99.90;;;;;;5003146;28;20265;-88
2022/04/09 09:55:00;;;;;;;5.90;1.30;;;6.10;99.90;;;;;;5006403;28;20669;-87
2022/04/09 09:57:29;;;;;;;6.60;2.30;;;5.30;99.90;;;;;;5007452;28;20213;-88
2022/04/09 09:59:58;;;;;;;6.50;1.77;;;5.60;99.90;;;;;;5007223;28;20230;-87
2022/04/09 10:02:30;;;;;;;7.47;1.97;;;7.00;99.90;;;;;;5003443;28;20217;-86
2022/04/09 10:04:57;;;;;;;2.60;1.57;;;6.30;99.90;;;;;;5000626;28;20612;-85
2022/04/09 10:07:25;;;;;;;4.87;1.63;;;7.50;99.90;;;;;;5002684;28;20259;-84
2022/04/09 10:09:53;;;;;;;3.53;1.30;;;7.40;99.90;;;;;;5004897;28;20250;-87
2022/04/09 10:12:24;;;;;;;3.77;1.60;;;8.40;99.90;;;;;;5001003;28;20665;-87
2022/04/09 10:14:56;;;;;;;6.37;1.53;;;7.80;99.90;;;;;;5006795;28;20208;-88
2022/04/09 10:17:24;;;;;;;3.33;1.00;;;8.00;99.90;;;;;;5001224;28;20316;-87
2022/04/09 10:19:56;;;;;;;8.70;1.60;;;7.90;99.90;;;;;;4999776;28;20206;-86
2022/04/09 10:22:36;;;;;;;8.23;1.40;;;8.70;99.90;;;;;;5007503;28;20289;-87
2022/04/09 10:25:05;;;;;;;4.43;1.10;;;9.70;99.90;;;;;;5007537;28;20213;-85
2022/04/09 10:27:38;;;;;;;3.40;1.10;;;9.40;99.90;;;;;;5008166;28;20215;-87
2022/04/09 10:30:12;;;;;;;2.13;0.90;;;9.70;99.90;;;;;;5007898;28;20254;-87
2022/04/09 10:32:47;;;;;;;5.80;1.00;;;11.50;99.90;;;;;;5009636;28;20208;-88
2022/04/09 10:35:40;;;;;;;3.80;1.00;;;10.70;99.90;;;;;;5002121;28;20242;-89
2022/04/09 10:38:08;;;;;;;3.90;0.90;;;9.80;99.90;;;;;;5007066;28;20648;-89
2022/04/09 10:40:56;;;;;;;5.63;1.13;;;10.00;99.90;;;;;;5009273;28;20209;-86
2022/04/09 10:43:26;;;;;;;6.40;1.30;;;8.70;99.90;;;;;;4977326;28;20242;-90
2022/04/09 10:46:02;;;;;;;4.10;1.43;;;9.10;99.90;;;;;;5002637;28;20295;-89
2022/04/09 10:48:31;;;;;;;6.33;1.63;;;8.90;99.90;;;;;;5017829;28;20214;-90
2022/04/09 10:51:04;;;;;;;3.63;1.10;;;10.60;99.90;;;;;;5006508;28;20203;-90
2022/04/09 10:53:33;;;;;;;4.27;1.47;;;9.00;99.90;;;;;;5018293;28;20312;-86
2022/04/09 10:56:32;;;;;;;8.93;1.43;;;8.50;99.90;;;;;;4999414;28;20227;-87
2022/04/09 10:59:08;;;;;;;5.23;1.00;;;9.30;99.90;;;;;;5003327;28;20721;-88
2022/04/09 11:01:46;;;;;;;3.10;1.00;;;9.00;99.90;;;;;;4995591;28;20307;-87
2022/04/09 11:07:03;;;;;;;2.27;0.83;;;;;;;;;;5002537;28;20310;-90
2022/04/09 11:09:49;;;;;;;4.10;0.90;;;8.50;99.90;;;;;;4999542;28;20210;-89
2022/04/09 11:12:27;;;;;;;3.57;1.00;;;8.50;99.90;;;;;;5005748;28;20310;-89
2022/04/09 11:15:03;;;;;;;5.13;1.20;;;8.60;99.90;;;;;;5006580;28;20211;-89
2022/04/09 11:17:35;;;;;;;5.03;1.13;;;8.80;99.90;;;;;;5004103;28;20289;-88
2022/04/09 11:20:14;;;;;;;3.80;1.00;;;9.00;99.90;;;;;;5004162;28;20713;-87
2022/04/09 11:22:47;;;;;;;2.90;1.30;;;9.10;99.90;;;;;;5017987;28;20218;-87
2022/04/09 11:25:24;;;;;;;7.17;1.03;;;9.30;99.90;;;;;;5010575;28;20203;-88
2022/04/09 11:27:52;;;;;;;4.83;1.17;;;9.60;99.90;;;;;;5001962;28;20220;-88
2022/04/09 11:30:20;;;;;;;4.87;1.20;;;9.70;99.90;;;;;;5011625;28;20216;-89
2022/04/09 11:32:47;;;;;;;3.17;0.93;;;9.80;99.90;;;;;;5015288;28;20221;-88
2022/04/09 11:35:16;;;;;;;1.80;1.00;;;9.70;99.90;;;;;;5003226;28;20198;-90
2022/04/09 11:37:45;;;;;;;5.93;1.30;;;9.30;99.90;;;;;;5012764;28;20594;-88
2022/04/09 11:40:13;;;;;;;3.83;1.10;;;8.80;99.90;;;;;;5012251;28;20208;-88
2022/04/09 11:42:51;;;;;;;4.40;1.53;;;8.50;99.90;;;;;;5010500;28;20207;-88
2022/04/09 11:45:28;;;;;;;6.67;1.50;;;8.30;99.90;;;;;;5009314;28;20245;-88
2022/04/09 11:48:00;;;;;;;5.20;1.40;;;8.30;99.90;;;;;;5015227;28;20218;-88
2022/04/09 11:50:32;;;;;;;6.33;1.50;;;8.20;99.90;;;;;;5009295;28;20615;-88
2022/04/09 11:53:24;;;;;;;8.30;1.33;;;8.20;99.90;;;;;;5009143;28;20217;-89
2022/04/09 11:55:59;;;;;;;3.80;1.30;;;8.20;99.90;;;;;;5008612;28;20379;-88
2022/04/09 11:58:34;;;;;;;7.00;1.50;;;8.20;99.90;;;;;;5004446;28;20282;-86
2022/04/09 12:01:07;;;;;;;2.33;1.07;;;8.30;99.90;;;;;;5014845;28;20716;-89
2022/04/09 12:03:34;;;;;;;2.67;1.30;;;8.20;99.90;;;;;;5003330;28;20227;-87
2022/04/09 12:06:02;;;;;;;2.37;1.03;;;8.40;99.90;;;;;;5016662;28;20310;-87
2022/04/09 12:08:31;;;;;;;4.00;1.13;;;8.70;99.90;;;;;;5016148;28;20306;-88
2022/04/09 12:11:10;;;;;;;4.97;1.20;;;9.00;99.90;;;;;;5005980;28;20215;-87
2022/04/09 12:13:39;;;;;;;4.30;1.00;;;9.00;99.90;;;;;;5020049;28;20743;-88
2022/04/09 12:16:19;;;;;;;2.53;1.23;;;8.90;99.90;;;;;;5006184;28;20758;-87
2022/04/09 12:18:48;;;;;;;3.23;1.00;;;8.80;99.90;;;;;;5018483;28;20572;-89
2022/04/09 12:21:24;;;;;;;3.33;1.00;;;8.80;99.90;;;;;;5007914;28;20206;-88
2022/04/09 12:24:14;;;;;;;5.30;1.23;;;9.00;99.90;;;;;;5007949;28;20198;-86
2022/04/09 12:26:45;;;;;;;3.33;1.10;;;9.20;99.90;;;;;;5013859;28;20242;-89
2022/04/09 12:29:26;;;;;;;2.97;1.10;;;9.30;99.90;;;;;;5012923;28;20687;-88
2022/04/09 12:32:15;;;;;;;7.57;1.40;;;9.70;99.90;;;;;;5008836;28;20214;-87
2022/04/09 12:34:57;;;;;;;14.33;2.60;;;9.60;99.90;;;;;;5011946;28;20710;-87
2022/04/09 12:37:25;;;;;;;4.40;1.80;;;9.50;99.90;;;;;;5026403;28;20224;-90
2022/04/09 12:40:11;;;;;;;6.27;1.20;;;9.30;99.90;;;;;;5012484;28;20245;-89
2022/04/09 12:42:42;;;;;;;6.07;1.43;;;9.00;99.90;;;;;;5004950;28;20242;-89
2022/04/09 12:45:15;;;;;;;3.17;1.50;;;8.70;99.90;;;;;;5007750;28;20211;-87
2022/04/09 12:47:56;;;;;;;3.97;1.20;;;8.40;99.90;;;;;;5006729;28;20233;-87
2022/04/09 12:50:34;;;;;;;4.53;1.10;;;8.20;99.90;;;;;;5003181;28;20237;-90
2022/04/09 12:53:03;;;;;;;4.67;1.30;;;8.10;99.90;;;;;;5016170;28;20212;-88
2022/04/09 12:55:31;;;;;;;2.43;1.20;;;8.00;99.90;;;;;;5002983;28;20242;-88
2022/04/09 12:58:01;;;;;;;6.30;1.40;;;8.00;99.90;;;;;;5008614;28;20265;-87
2022/04/09 13:00:32;;;;;;;10.50;1.73;;;8.00;99.90;;;;;;5004698;28;20624;-85
2022/04/09 13:03:01;;;;;;;5.53;1.47;;;8.10;99.90;;;;;;5005990;28;20290;-87
2022/04/09 13:05:29;;;;;;;4.87;1.30;;;8.00;99.90;;;;;;5006281;28;20210;-86
2022/04/09 13:07:56;;;;;;;2.27;1.13;;;8.00;99.90;;;;;;5007275;28;20226;-85
2022/04/09 13:10:23;;;;;;;5.37;1.20;;;8.00;99.90;;;;;;5006396;28;20277;-87